sensor_id;sensor_type;location;lat;lon;timestamp;temperature;humidity
46041;DHT22;31779;49.124;19.190;2022-08-01T00:00:50;11.80;99.90
46041;DHT22;31779;49.124;19.190;2022-08-01T00:03:18;11.80;99.90
46041;DHT22;31779;49.124;19.190;2022-08-01T00:05:45;11.70;99.90
46041;DHT22;31779;49.124;19.190;2022-08-01T00:08:14;11.70;99.90
46041;DHT22;31779;49.124;19.190;2022-08-01T00:10:42;11.70;99.90
46041;DHT22;31779;49.124;19.190;2022-08-01T00:13:09;11.70;99.90
46041;DHT22;31779;49.124;19.190;2022-08-01T00:15:37;11.70;99.90
46041;DHT22;31779;49.124;19.190;2022-08-01T00:18:05;11.60;99.90
46041;DHT22;31779;49.124;19.190;2022-08-01T00:20:32;11.60;99.90
46041;DHT22;31779;49.124;19.190;2022-08-01T00:23:02;11.40;99.90
46041;DHT22;31779;49.124;19.190;2022-08-01T00:25:29;11.40;99.90
46041;DHT22;31779;49.124;19.190;2022-08-01T00:28:00;11.40;99.90
46041;DHT22;31779;49.124;19.190;2022-08-01T00:30:30;11.40;99.90
46041;DHT22;31779;49.124;19.190;2022-08-01T00:32:59;11.40;99.90
46041;DHT22;31779;49.124;19.190;2022-08-01T00:35:27;11.40;99.90
46041;DHT22;31779;49.124;19.190;2022-08-01T00:37:54;11.30;99.90
46041;DHT22;31779;49.124;19.190;2022-08-01T00:40:22;11.30;99.90
46041;DHT22;31779;49.124;19.190;2022-08-01T00:42:50;11.30;99.90
46041;DHT22;31779;49.124;19.190;2022-08-01T00:45:18;11.20;99.90
46041;DHT22;31779;49.124;19.190;2022-08-01T00:47:46;11.20;99.90
46041;DHT22;31779;49.124;19.190;2022-08-01T00:50:21;11.20;99.90
46041;DHT22;31779;49.124;19.190;2022-08-01T00:53:07;11.20;99.90
46041;DHT22;31779;49.124;19.190;2022-08-01T00:55:51;11.20;99.90
46041;DHT22;31779;49.124;19.190;2022-08-01T00:58:38;11.10;99.90
46041;DHT22;31779;49.124;19.190;2022-08-01T01:04:18;11.10;99.90
46041;DHT22;31779;49.124;19.190;2022-08-01T01:09:19;11.00;99.90
46041;DHT22;31779;49.124;19.190;2022-08-01T01:14:23;11.00;99.90
46041;DHT22;31779;49.124;19.190;2022-08-01T01:16:53;11.00;99.90
46041;DHT22;31779;49.124;19.190;2022-08-01T01:19:23;11.00;99.90
46041;DHT22;31779;49.124;19.190;2022-08-01T01:22:00;11.00;99.90
46041;DHT22;31779;49.124;19.190;2022-08-01T01:24:40;11.00;99.90
46041;DHT22;31779;49.124;19.190;2022-08-01T01:27:21;11.00;99.90
46041;DHT22;31779;49.124;19.190;2022-08-01T01:29:54;11.00;99.90
46041;DHT22;31779;49.124;19.190;2022-08-01T01:32:31;11.10;99.90
46041;DHT22;31779;49.124;19.190;2022-08-01T01:35:03;11.10;99.90
46041;DHT22;31779;49.124;19.190;2022-08-01T01:37:33;11.20;99.90
46041;DHT22;31779;49.124;19.190;2022-08-01T01:40:02;11.20;99.90
46041;DHT22;31779;49.124;19.190;2022-08-01T01:42:32;11.20;99.90
46041;DHT22;31779;49.124;19.190;2022-08-01T01:45:01;11.20;99.90
46041;DHT22;31779;49.124;19.190;2022-08-01T01:47:30;11.10;99.90
46041;DHT22;31779;49.124;19.190;2022-08-01T01:49:58;11.10;99.90
46041;DHT22;31779;49.124;19.190;2022-08-01T01:52:27;11.10;99.90
46041;DHT22;31779;49.124;19.190;2022-08-01T01:54:55;11.10;99.90
46041;DHT22;31779;49.124;19.190;2022-08-01T01:57:23;11.20;99.90
46041;DHT22;31779;49.124;19.190;2022-08-01T01:59:51;11.10;99.90
46041;DHT22;31779;49.124;19.190;2022-08-01T02:02:21;11.20;99.90
46041;DHT22;31779;49.124;19.190;2022-08-01T02:04:50;11.20;99.90
46041;DHT22;31779;49.124;19.190;2022-08-01T02:07:22;11.30;99.90
46041;DHT22;31779;49.124;19.190;2022-08-01T02:09:51;11.20;99.90
46041;DHT22;31779;49.124;19.190;2022-08-01T02:12:20;11.20;99.90
46041;DHT22;31779;49.124;19.190;2022-08-01T02:14:52;11.20;99.90
46041;DHT22;31779;49.124;19.190;2022-08-01T02:17:20;11.20;99.90
46041;DHT22;31779;49.124;19.190;2022-08-01T02:19:49;11.20;99.90
46041;DHT22;31779;49.124;19.190;2022-08-01T02:22:19;11.20;99.90
46041;DHT22;31779;49.124;19.190;2022-08-01T02:27:25;11.20;99.90
46041;DHT22;31779;49.124;19.190;2022-08-01T02:29:58;11.30;99.90
46041;DHT22;31779;49.124;19.190;2022-08-01T02:32:35;11.20;99.90
46041;DHT22;31779;49.124;19.190;2022-08-01T02:35:03;11.30;99.90
46041;DHT22;31779;49.124;19.190;2022-08-01T02:37:34;11.30;99.90
46041;DHT22;31779;49.124;19.190;2022-08-01T02:40:09;11.40;99.90
46041;DHT22;31779;49.124;19.190;2022-08-01T02:42:42;11.40;99.90
46041;DHT22;31779;49.124;19.190;2022-08-01T02:45:10;11.40;99.90
46041;DHT22;31779;49.124;19.190;2022-08-01T02:47:40;11.40;99.90
46041;DHT22;31779;49.124;19.190;2022-08-01T02:50:13;11.40;99.90
46041;DHT22;31779;49.124;19.190;2022-08-01T02:52:41;11.30;99.90
46041;DHT22;31779;49.124;19.190;2022-08-01T02:55:11;11.40;99.90
46041;DHT22;31779;49.124;19.190;2022-08-01T02:57:39;11.40;99.90
46041;DHT22;31779;49.124;19.190;2022-08-01T03:00:23;11.50;99.90
46041;DHT22;31779;49.124;19.190;2022-08-01T03:02:51;11.50;99.90
46041;DHT22;31779;49.124;19.190;2022-08-01T03:05:22;11.60;99.90
46041;DHT22;31779;49.124;19.190;2022-08-01T03:07:50;11.60;99.90
46041;DHT22;31779;49.124;19.190;2022-08-01T03:10:18;11.50;99.90
46041;DHT22;31779;49.124;19.190;2022-08-01T03:12:46;11.50;99.90
46041;DHT22;31779;49.124;19.190;2022-08-01T03:15:15;11.50;99.90
46041;DHT22;31779;49.124;19.190;2022-08-01T03:17:44;11.50;99.90
46041;DHT22;31779;49.124;19.190;2022-08-01T03:20:13;11.50;99.90
46041;DHT22;31779;49.124;19.190;2022-08-01T03:22:42;11.60;99.90
46041;DHT22;31779;49.124;19.190;2022-08-01T03:25:11;11.60;99.90
46041;DHT22;31779;49.124;19.190;2022-08-01T03:27:41;11.60;99.90
46041;DHT22;31779;49.124;19.190;2022-08-01T03:30:09;11.50;99.90
46041;DHT22;31779;49.124;19.190;2022-08-01T03:32:38;11.60;99.90
46041;DHT22;31779;49.124;19.190;2022-08-01T03:35:06;11.70;99.90
46041;DHT22;31779;49.124;19.190;2022-08-01T03:37:36;11.70;99.90
46041;DHT22;31779;49.124;19.190;2022-08-01T03:40:25;11.70;99.90
46041;DHT22;31779;49.124;19.190;2022-08-01T03:42:58;11.60;99.90
46041;DHT22;31779;49.124;19.190;2022-08-01T03:45:28;11.70;99.90
46041;DHT22;31779;49.124;19.190;2022-08-01T03:47:59;11.70;99.90
46041;DHT22;31779;49.124;19.190;2022-08-01T03:50:27;11.80;99.90
46041;DHT22;31779;49.124;19.190;2022-08-01T03:52:57;11.90;99.90
46041;DHT22;31779;49.124;19.190;2022-08-01T03:55:26;12.00;99.90
46041;DHT22;31779;49.124;19.190;2022-08-01T03:57:54;12.00;99.90
46041;DHT22;31779;49.124;19.190;2022-08-01T04:00:22;12.00;99.90
46041;DHT22;31779;49.124;19.190;2022-08-01T04:02:50;11.90;99.90
46041;DHT22;31779;49.124;19.190;2022-08-01T04:05:18;11.70;99.90
46041;DHT22;31779;49.124;19.190;2022-08-01T04:07:46;11.60;99.90
46041;DHT22;31779;49.124;19.190;2022-08-01T04:10:14;11.60;99.90
46041;DHT22;31779;49.124;19.190;2022-08-01T04:12:42;11.60;99.90
46041;DHT22;31779;49.124;19.190;2022-08-01T04:15:10;11.70;99.90
46041;DHT22;31779;49.124;19.190;2022-08-01T04:17:37;11.80;99.90
46041;DHT22;31779;49.124;19.190;2022-08-01T04:20:05;11.90;99.90
46041;DHT22;31779;49.124;19.190;2022-08-01T04:22:33;11.90;99.90
46041;DHT22;31779;49.124;19.190;2022-08-01T04:25:05;12.00;99.90
46041;DHT22;31779;49.124;19.190;2022-08-01T04:27:39;12.00;99.90
46041;DHT22;31779;49.124;19.190;2022-08-01T04:30:18;12.10;99.90
46041;DHT22;31779;49.124;19.190;2022-08-01T04:32:47;12.00;99.90
46041;DHT22;31779;49.124;19.190;2022-08-01T04:35:15;12.10;99.90
46041;DHT22;31779;49.124;19.190;2022-08-01T04:38:04;12.30;99.90
46041;DHT22;31779;49.124;19.190;2022-08-01T04:40:32;12.40;99.90
46041;DHT22;31779;49.124;19.190;2022-08-01T04:43:01;12.40;99.90
46041;DHT22;31779;49.124;19.190;2022-08-01T04:45:28;12.40;99.90
46041;DHT22;31779;49.124;19.190;2022-08-01T04:47:56;12.50;99.90
46041;DHT22;31779;49.124;19.190;2022-08-01T04:50:24;12.60;99.90
46041;DHT22;31779;49.124;19.190;2022-08-01T04:52:52;12.70;99.90
46041;DHT22;31779;49.124;19.190;2022-08-01T04:55:19;12.60;99.90
46041;DHT22;31779;49.124;19.190;2022-08-01T04:57:48;12.60;99.90
46041;DHT22;31779;49.124;19.190;2022-08-01T05:00:15;12.50;99.90
46041;DHT22;31779;49.124;19.190;2022-08-01T05:02:46;12.40;99.90
46041;DHT22;31779;49.124;19.190;2022-08-01T05:05:14;12.40;99.90
46041;DHT22;31779;49.124;19.190;2022-08-01T05:07:42;12.30;99.90
46041;DHT22;31779;49.124;19.190;2022-08-01T05:10:11;12.40;99.90
46041;DHT22;31779;49.124;19.190;2022-08-01T05:12:40;12.30;99.90
46041;DHT22;31779;49.124;19.190;2022-08-01T05:15:08;12.30;99.90
46041;DHT22;31779;49.124;19.190;2022-08-01T05:17:41;12.50;99.90
46041;DHT22;31779;49.124;19.190;2022-08-01T05:20:12;12.60;99.90
46041;DHT22;31779;49.124;19.190;2022-08-01T05:22:39;12.70;99.90
46041;DHT22;31779;49.124;19.190;2022-08-01T05:25:07;13.00;99.90
46041;DHT22;31779;49.124;19.190;2022-08-01T05:27:35;13.30;99.90
46041;DHT22;31779;49.124;19.190;2022-08-01T05:30:07;13.60;99.90
46041;DHT22;31779;49.124;19.190;2022-08-01T05:32:35;14.00;99.90
46041;DHT22;31779;49.124;19.190;2022-08-01T05:35:03;14.20;99.90
46041;DHT22;31779;49.124;19.190;2022-08-01T05:37:32;14.40;99.90
46041;DHT22;31779;49.124;19.190;2022-08-01T05:40:00;14.40;99.90
46041;DHT22;31779;49.124;19.190;2022-08-01T05:42:28;14.10;99.90
46041;DHT22;31779;49.124;19.190;2022-08-01T05:44:55;14.20;99.90
46041;DHT22;31779;49.124;19.190;2022-08-01T05:47:23;14.00;99.90
46041;DHT22;31779;49.124;19.190;2022-08-01T05:49:51;14.10;99.90
46041;DHT22;31779;49.124;19.190;2022-08-01T05:52:19;14.00;99.90
46041;DHT22;31779;49.124;19.190;2022-08-01T05:54:47;13.90;99.90
46041;DHT22;31779;49.124;19.190;2022-08-01T05:57:15;14.00;99.90
46041;DHT22;31779;49.124;19.190;2022-08-01T05:59:42;14.10;99.90
46041;DHT22;31779;49.124;19.190;2022-08-01T06:02:10;14.10;99.90
46041;DHT22;31779;49.124;19.190;2022-08-01T06:04:37;14.20;99.90
46041;DHT22;31779;49.124;19.190;2022-08-01T06:07:05;14.20;99.90
46041;DHT22;31779;49.124;19.190;2022-08-01T06:09:33;14.30;99.90
46041;DHT22;31779;49.124;19.190;2022-08-01T06:12:00;14.60;99.90
46041;DHT22;31779;49.124;19.190;2022-08-01T06:14:28;14.60;99.90
46041;DHT22;31779;49.124;19.190;2022-08-01T06:16:56;14.90;99.90
46041;DHT22;31779;49.124;19.190;2022-08-01T06:19:24;15.00;99.90
46041;DHT22;31779;49.124;19.190;2022-08-01T06:21:53;15.20;99.90
46041;DHT22;31779;49.124;19.190;2022-08-01T06:24:21;15.30;99.90
46041;DHT22;31779;49.124;19.190;2022-08-01T06:26:50;15.70;99.90
46041;DHT22;31779;49.124;19.190;2022-08-01T06:29:17;15.90;99.90
46041;DHT22;31779;49.124;19.190;2022-08-01T06:31:45;16.00;99.90
46041;DHT22;31779;49.124;19.190;2022-08-01T06:34:13;16.20;99.90
46041;DHT22;31779;49.124;19.190;2022-08-01T06:36:42;16.30;99.90
46041;DHT22;31779;49.124;19.190;2022-08-01T06:39:10;16.30;99.90
46041;DHT22;31779;49.124;19.190;2022-08-01T06:41:38;16.40;99.90
46041;DHT22;31779;49.124;19.190;2022-08-01T06:44:09;16.60;99.90
46041;DHT22;31779;49.124;19.190;2022-08-01T06:46:36;16.60;99.90
46041;DHT22;31779;49.124;19.190;2022-08-01T06:49:04;16.80;99.90
46041;DHT22;31779;49.124;19.190;2022-08-01T06:51:34;16.90;99.90
46041;DHT22;31779;49.124;19.190;2022-08-01T06:54:02;17.00;99.90
46041;DHT22;31779;49.124;19.190;2022-08-01T06:56:34;17.20;99.90
46041;DHT22;31779;49.124;19.190;2022-08-01T06:59:05;17.50;99.90
46041;DHT22;31779;49.124;19.190;2022-08-01T07:01:37;17.60;99.90
46041;DHT22;31779;49.124;19.190;2022-08-01T07:04:06;17.90;99.90
46041;DHT22;31779;49.124;19.190;2022-08-01T07:06:35;18.10;99.90
46041;DHT22;31779;49.124;19.190;2022-08-01T07:09:03;18.40;99.90
46041;DHT22;31779;49.124;19.190;2022-08-01T07:11:38;18.60;99.90
46041;DHT22;31779;49.124;19.190;2022-08-01T07:14:07;18.80;99.90
46041;DHT22;31779;49.124;19.190;2022-08-01T07:16:34;18.90;99.90
46041;DHT22;31779;49.124;19.190;2022-08-01T07:19:03;19.30;99.90
46041;DHT22;31779;49.124;19.190;2022-08-01T07:21:31;19.50;99.90
46041;DHT22;31779;49.124;19.190;2022-08-01T07:24:07;19.50;99.90
46041;DHT22;31779;49.124;19.190;2022-08-01T07:26:41;19.70;99.90
46041;DHT22;31779;49.124;19.190;2022-08-01T07:29:21;19.80;99.90
46041;DHT22;31779;49.124;19.190;2022-08-01T07:31:50;21.00;99.90
46041;DHT22;31779;49.124;19.190;2022-08-01T07:34:18;23.80;99.90
46041;DHT22;31779;49.124;19.190;2022-08-01T07:36:46;23.70;98.10
46041;DHT22;31779;49.124;19.190;2022-08-01T07:39:13;22.60;99.90
46041;DHT22;31779;49.124;19.190;2022-08-01T07:41:41;21.80;99.90
46041;DHT22;31779;49.124;19.190;2022-08-01T07:44:29;21.50;99.90
46041;DHT22;31779;49.124;19.190;2022-08-01T07:46:57;21.30;99.90
46041;DHT22;31779;49.124;19.190;2022-08-01T07:49:25;21.30;99.90
46041;DHT22;31779;49.124;19.190;2022-08-01T07:51:53;21.20;99.90
46041;DHT22;31779;49.124;19.190;2022-08-01T07:54:31;21.30;99.90
46041;DHT22;31779;49.124;19.190;2022-08-01T07:57:02;21.40;99.90
46041;DHT22;31779;49.124;19.190;2022-08-01T07:59:30;21.40;99.90
46041;DHT22;31779;49.124;19.190;2022-08-01T08:02:00;21.50;99.90
46041;DHT22;31779;49.124;19.190;2022-08-01T08:04:28;21.50;99.90
46041;DHT22;31779;49.124;19.190;2022-08-01T08:06:56;21.70;99.90
46041;DHT22;31779;49.124;19.190;2022-08-01T08:09:24;22.00;99.90
46041;DHT22;31779;49.124;19.190;2022-08-01T08:11:54;22.20;99.90
46041;DHT22;31779;49.124;19.190;2022-08-01T08:14:24;22.60;99.80
46041;DHT22;31779;49.124;19.190;2022-08-01T08:16:59;22.50;99.90
46041;DHT22;31779;49.124;19.190;2022-08-01T08:19:28;22.60;99.90
46041;DHT22;31779;49.124;19.190;2022-08-01T08:22:05;23.20;97.10
46041;DHT22;31779;49.124;19.190;2022-08-01T08:24:35;23.40;99.20
46041;DHT22;31779;49.124;19.190;2022-08-01T08:27:12;23.90;97.80
46041;DHT22;31779;49.124;19.190;2022-08-01T08:29:43;24.00;92.90
46041;DHT22;31779;49.124;19.190;2022-08-01T08:32:11;24.40;96.60
46041;DHT22;31779;49.124;19.190;2022-08-01T08:34:39;25.00;99.90
46041;DHT22;31779;49.124;19.190;2022-08-01T08:37:07;25.30;96.00
46041;DHT22;31779;49.124;19.190;2022-08-01T08:39:37;26.90;92.70
46041;DHT22;31779;49.124;19.190;2022-08-01T08:42:10;32.40;66.00
46041;DHT22;31779;49.124;19.190;2022-08-01T08:44:42;35.50;62.80
46041;DHT22;31779;49.124;19.190;2022-08-01T08:47:12;38.70;48.40
46041;DHT22;31779;49.124;19.190;2022-08-01T08:49:46;41.00;42.90
46041;DHT22;31779;49.124;19.190;2022-08-01T08:52:17;42.30;42.30
46041;DHT22;31779;49.124;19.190;2022-08-01T08:54:49;42.30;42.20
46041;DHT22;31779;49.124;19.190;2022-08-01T08:57:18;43.70;39.50
46041;DHT22;31779;49.124;19.190;2022-08-01T08:59:47;44.10;39.20
46041;DHT22;31779;49.124;19.190;2022-08-01T09:02:15;46.60;34.50
46041;DHT22;31779;49.124;19.190;2022-08-01T09:04:45;45.30;34.10
46041;DHT22;31779;49.124;19.190;2022-08-01T09:07:18;44.20;39.00
46041;DHT22;31779;49.124;19.190;2022-08-01T09:09:46;40.00;43.00
46041;DHT22;31779;49.124;19.190;2022-08-01T09:12:18;41.70;37.50
46041;DHT22;31779;49.124;19.190;2022-08-01T09:14:48;40.30;39.00
46041;DHT22;31779;49.124;19.190;2022-08-01T09:17:17;44.20;36.50
46041;DHT22;31779;49.124;19.190;2022-08-01T09:19:46;46.40;37.40
46041;DHT22;31779;49.124;19.190;2022-08-01T09:22:18;45.90;34.00
46041;DHT22;31779;49.124;19.190;2022-08-01T09:25:03;46.30;34.00
46041;DHT22;31779;49.124;19.190;2022-08-01T09:27:31;49.00;35.40
46041;DHT22;31779;49.124;19.190;2022-08-01T09:30:18;49.30;33.30
46041;DHT22;31779;49.124;19.190;2022-08-01T09:33:02;50.10;33.30
46041;DHT22;31779;49.124;19.190;2022-08-01T09:35:37;48.90;30.70
46041;DHT22;31779;49.124;19.190;2022-08-01T09:38:17;48.20;31.10
46041;DHT22;31779;49.124;19.190;2022-08-01T09:40:46;47.40;36.00
46041;DHT22;31779;49.124;19.190;2022-08-01T09:43:16;44.00;34.00
46041;DHT22;31779;49.124;19.190;2022-08-01T09:45:45;42.10;33.10
46041;DHT22;31779;49.124;19.190;2022-08-01T09:48:18;41.30;39.90
46041;DHT22;31779;49.124;19.190;2022-08-01T09:50:50;40.90;38.80
46041;DHT22;31779;49.124;19.190;2022-08-01T09:53:19;40.90;38.10
46041;DHT22;31779;49.124;19.190;2022-08-01T09:56:08;39.50;38.20
46041;DHT22;31779;49.124;19.190;2022-08-01T09:58:49;37.20;41.10
46041;DHT22;31779;49.124;19.190;2022-08-01T10:01:24;37.30;40.50
46041;DHT22;31779;49.124;19.190;2022-08-01T10:06:37;36.70;39.40
46041;DHT22;31779;49.124;19.190;2022-08-01T10:09:04;36.10;41.30
46041;DHT22;31779;49.124;19.190;2022-08-01T10:11:33;35.20;45.40
46041;DHT22;31779;49.124;19.190;2022-08-01T10:14:05;34.80;44.30
46041;DHT22;31779;49.124;19.190;2022-08-01T10:16:35;34.70;41.10
46041;DHT22;31779;49.124;19.190;2022-08-01T10:19:06;34.30;40.90
46041;DHT22;31779;49.124;19.190;2022-08-01T10:21:40;33.70;44.40
46041;DHT22;31779;49.124;19.190;2022-08-01T10:24:25;33.80;41.70
46041;DHT22;31779;49.124;19.190;2022-08-01T10:26:55;32.10;51.90
46041;DHT22;31779;49.124;19.190;2022-08-01T10:29:34;31.10;53.30
46041;DHT22;31779;49.124;19.190;2022-08-01T10:32:23;31.70;50.40
46041;DHT22;31779;49.124;19.190;2022-08-01T10:34:55;31.40;50.40
46041;DHT22;31779;49.124;19.190;2022-08-01T10:37:23;30.90;43.50
46041;DHT22;31779;49.124;19.190;2022-08-01T10:39:53;30.90;48.40
46041;DHT22;31779;49.124;19.190;2022-08-01T10:42:41;30.80;50.60
46041;DHT22;31779;49.124;19.190;2022-08-01T10:45:10;30.60;52.80
46041;DHT22;31779;49.124;19.190;2022-08-01T10:50:37;31.20;55.80
46041;DHT22;31779;49.124;19.190;2022-08-01T10:53:08;32.20;48.00
46041;DHT22;31779;49.124;19.190;2022-08-01T10:58:38;31.90;46.30
46041;DHT22;31779;49.124;19.190;2022-08-01T11:01:19;32.10;48.80
46041;DHT22;31779;49.124;19.190;2022-08-01T11:09:06;31.90;45.60
46041;DHT22;31779;49.124;19.190;2022-08-01T11:11:59;31.90;46.70
46041;DHT22;31779;49.124;19.190;2022-08-01T11:14:33;31.40;44.60
46041;DHT22;31779;49.124;19.190;2022-08-01T11:17:34;31.70;45.40
46041;DHT22;31779;49.124;19.190;2022-08-01T11:20:11;31.10;47.80
46041;DHT22;31779;49.124;19.190;2022-08-01T11:28:26;32.80;49.50
46041;DHT22;31779;49.124;19.190;2022-08-01T11:41:11;31.10;49.70
46041;DHT22;31779;49.124;19.190;2022-08-01T11:54:29;28.40;50.20
46041;DHT22;31779;49.124;19.190;2022-08-01T11:57:10;28.40;48.70
46041;DHT22;31779;49.124;19.190;2022-08-01T11:59:43;28.60;54.00
46041;DHT22;31779;49.124;19.190;2022-08-01T12:02:39;28.70;51.50
46041;DHT22;31779;49.124;19.190;2022-08-01T12:05:08;28.90;54.70
46041;DHT22;31779;49.124;19.190;2022-08-01T12:07:39;29.40;51.70
46041;DHT22;31779;49.124;19.190;2022-08-01T12:12:43;29.40;51.60
46041;DHT22;31779;49.124;19.190;2022-08-01T12:15:11;29.10;49.10
46041;DHT22;31779;49.124;19.190;2022-08-01T12:17:46;29.30;53.00
46041;DHT22;31779;49.124;19.190;2022-08-01T12:20:26;28.90;51.50
46041;DHT22;31779;49.124;19.190;2022-08-01T12:22:57;28.70;49.90
46041;DHT22;31779;49.124;19.190;2022-08-01T12:25:26;28.10;48.40
46041;DHT22;31779;49.124;19.190;2022-08-01T12:27:54;27.50;55.50
46041;DHT22;31779;49.124;19.190;2022-08-01T12:30:23;27.80;49.60
46041;DHT22;31779;49.124;19.190;2022-08-01T12:32:52;27.60;54.70
46041;DHT22;31779;49.124;19.190;2022-08-01T12:35:22;27.50;52.30
46041;DHT22;31779;49.124;19.190;2022-08-01T12:37:51;26.90;58.60
46041;DHT22;31779;49.124;19.190;2022-08-01T12:40:20;26.30;65.30
46041;DHT22;31779;49.124;19.190;2022-08-01T12:42:52;26.20;66.80
46041;DHT22;31779;49.124;19.190;2022-08-01T12:45:24;25.70;68.50
46041;DHT22;31779;49.124;19.190;2022-08-01T12:47:53;25.30;65.30
46041;DHT22;31779;49.124;19.190;2022-08-01T12:50:22;25.00;71.50
46041;DHT22;31779;49.124;19.190;2022-08-01T12:52:51;25.30;72.20
46041;DHT22;31779;49.124;19.190;2022-08-01T12:55:20;25.30;72.60
46041;DHT22;31779;49.124;19.190;2022-08-01T12:57:50;25.20;70.60
46041;DHT22;31779;49.124;19.190;2022-08-01T13:00:22;25.10;71.90
46041;DHT22;31779;49.124;19.190;2022-08-01T13:03:02;25.00;74.00
46041;DHT22;31779;49.124;19.190;2022-08-01T13:08:32;24.90;79.00
46041;DHT22;31779;49.124;19.190;2022-08-01T13:11:09;24.60;80.60
46041;DHT22;31779;49.124;19.190;2022-08-01T13:13:43;24.90;82.10
46041;DHT22;31779;49.124;19.190;2022-08-01T13:16:11;25.70;79.10
46041;DHT22;31779;49.124;19.190;2022-08-01T13:18:52;26.20;71.90
46041;DHT22;31779;49.124;19.190;2022-08-01T13:21:21;26.80;69.80
46041;DHT22;31779;49.124;19.190;2022-08-01T13:29:12;26.20;66.00
46041;DHT22;31779;49.124;19.190;2022-08-01T13:31:40;26.30;73.90
46041;DHT22;31779;49.124;19.190;2022-08-01T13:34:08;26.30;66.70
46041;DHT22;31779;49.124;19.190;2022-08-01T13:36:37;26.90;57.30
46041;DHT22;31779;49.124;19.190;2022-08-01T13:39:09;27.40;63.30
46041;DHT22;31779;49.124;19.190;2022-08-01T13:41:56;27.40;56.90
46041;DHT22;31779;49.124;19.190;2022-08-01T13:44:24;27.80;58.10
46041;DHT22;31779;49.124;19.190;2022-08-01T13:46:52;27.70;59.30
46041;DHT22;31779;49.124;19.190;2022-08-01T13:49:20;27.10;55.60
46041;DHT22;31779;49.124;19.190;2022-08-01T13:51:49;26.70;61.80
46041;DHT22;31779;49.124;19.190;2022-08-01T13:54:18;26.40;56.00
46041;DHT22;31779;49.124;19.190;2022-08-01T13:56:46;25.00;73.90
46041;DHT22;31779;49.124;19.190;2022-08-01T13:59:13;24.50;73.30
46041;DHT22;31779;49.124;19.190;2022-08-01T14:01:43;25.10;63.40
46041;DHT22;31779;49.124;19.190;2022-08-01T14:04:11;25.40;61.70
46041;DHT22;31779;49.124;19.190;2022-08-01T14:06:39;25.70;76.70
46041;DHT22;31779;49.124;19.190;2022-08-01T14:09:08;25.10;78.40
46041;DHT22;31779;49.124;19.190;2022-08-01T14:11:44;25.10;74.70
46041;DHT22;31779;49.124;19.190;2022-08-01T14:14:12;25.10;65.70
46041;DHT22;31779;49.124;19.190;2022-08-01T14:16:42;25.20;68.60
46041;DHT22;31779;49.124;19.190;2022-08-01T14:19:12;24.90;60.50
46041;DHT22;31779;49.124;19.190;2022-08-01T14:21:40;24.60;81.60
46041;DHT22;31779;49.124;19.190;2022-08-01T14:24:07;24.90;81.90
46041;DHT22;31779;49.124;19.190;2022-08-01T14:26:35;24.60;73.90
46041;DHT22;31779;49.124;19.190;2022-08-01T14:29:03;24.70;83.00
46041;DHT22;31779;49.124;19.190;2022-08-01T14:31:31;24.60;87.40
46041;DHT22;31779;49.124;19.190;2022-08-01T14:34:00;25.00;86.90
46041;DHT22;31779;49.124;19.190;2022-08-01T14:36:28;25.10;74.40
46041;DHT22;31779;49.124;19.190;2022-08-01T14:39:04;25.50;78.40
46041;DHT22;31779;49.124;19.190;2022-08-01T14:41:32;25.80;79.00
46041;DHT22;31779;49.124;19.190;2022-08-01T14:44:00;26.10;69.80
46041;DHT22;31779;49.124;19.190;2022-08-01T14:46:28;26.20;74.00
46041;DHT22;31779;49.124;19.190;2022-08-01T14:48:59;26.00;77.00
46041;DHT22;31779;49.124;19.190;2022-08-01T14:51:27;25.80;76.30
46041;DHT22;31779;49.124;19.190;2022-08-01T14:54:00;25.40;79.60
46041;DHT22;31779;49.124;19.190;2022-08-01T14:56:29;24.60;85.40
46041;DHT22;31779;49.124;19.190;2022-08-01T14:58:57;25.10;69.60
46041;DHT22;31779;49.124;19.190;2022-08-01T15:01:25;25.10;63.60
46041;DHT22;31779;49.124;19.190;2022-08-01T15:03:54;24.90;65.50
46041;DHT22;31779;49.124;19.190;2022-08-01T15:06:23;25.20;77.20
46041;DHT22;31779;49.124;19.190;2022-08-01T15:08:51;24.80;82.40
46041;DHT22;31779;49.124;19.190;2022-08-01T15:11:19;25.00;84.30
46041;DHT22;31779;49.124;19.190;2022-08-01T15:13:46;25.40;75.60
46041;DHT22;31779;49.124;19.190;2022-08-01T15:16:38;25.40;77.00
46041;DHT22;31779;49.124;19.190;2022-08-01T15:19:05;25.30;77.90
46041;DHT22;31779;49.124;19.190;2022-08-01T15:21:33;25.20;78.50
46041;DHT22;31779;49.124;19.190;2022-08-01T15:24:08;25.10;79.20
46041;DHT22;31779;49.124;19.190;2022-08-01T15:26:36;24.20;87.80
46041;DHT22;31779;49.124;19.190;2022-08-01T15:29:04;23.90;91.20
46041;DHT22;31779;49.124;19.190;2022-08-01T15:31:32;23.90;91.10
46041;DHT22;31779;49.124;19.190;2022-08-01T15:34:00;23.80;88.40
46041;DHT22;31779;49.124;19.190;2022-08-01T15:36:29;23.60;92.80
46041;DHT22;31779;49.124;19.190;2022-08-01T15:38:58;23.00;95.20
46041;DHT22;31779;49.124;19.190;2022-08-01T15:41:25;22.90;96.80
46041;DHT22;31779;49.124;19.190;2022-08-01T15:43:53;22.60;97.90
46041;DHT22;31779;49.124;19.190;2022-08-01T15:46:23;22.30;99.90
46041;DHT22;31779;49.124;19.190;2022-08-01T15:48:52;22.10;99.90
46041;DHT22;31779;49.124;19.190;2022-08-01T15:51:19;22.10;99.90
46041;DHT22;31779;49.124;19.190;2022-08-01T15:53:47;21.90;99.90
46041;DHT22;31779;49.124;19.190;2022-08-01T15:56:15;21.60;99.90
46041;DHT22;31779;49.124;19.190;2022-08-01T15:58:43;22.00;99.90
46041;DHT22;31779;49.124;19.190;2022-08-01T16:01:11;22.10;98.10
46041;DHT22;31779;49.124;19.190;2022-08-01T16:03:38;22.10;99.90
46041;DHT22;31779;49.124;19.190;2022-08-01T16:06:06;22.10;99.90
46041;DHT22;31779;49.124;19.190;2022-08-01T16:08:34;22.20;99.90
46041;DHT22;31779;49.124;19.190;2022-08-01T16:11:02;22.10;99.90
46041;DHT22;31779;49.124;19.190;2022-08-01T16:13:30;22.00;99.90
46041;DHT22;31779;49.124;19.190;2022-08-01T16:15:57;22.00;99.90
46041;DHT22;31779;49.124;19.190;2022-08-01T16:18:25;21.80;99.90
46041;DHT22;31779;49.124;19.190;2022-08-01T16:20:53;21.90;99.90
46041;DHT22;31779;49.124;19.190;2022-08-01T16:23:21;21.90;99.90
46041;DHT22;31779;49.124;19.190;2022-08-01T16:25:49;21.70;99.90
46041;DHT22;31779;49.124;19.190;2022-08-01T16:28:17;21.50;99.90
46041;DHT22;31779;49.124;19.190;2022-08-01T16:30:46;21.60;99.90
46041;DHT22;31779;49.124;19.190;2022-08-01T16:33:20;21.60;99.90
46041;DHT22;31779;49.124;19.190;2022-08-01T16:36:08;21.40;99.90
46041;DHT22;31779;49.124;19.190;2022-08-01T16:38:43;21.10;99.90